Terminal Aerodrome Forecast
Issued by NWS

Home | Current Version | Previous Version | Text Only | Print | Product List | Glossary On
Versions: 1 2 3 4 5 6 7 8 9 10 11 12 13
000
FTUS46 KMTR 290537
TAFOAK
TAF
KOAK 290537Z 2906/3012 31004KT P6SM FEW250
     FM292100 28014G19KT P6SM FEW015 SCT250
     FM300400 28010KT P6SM FEW008 SCT010 BKN250
     FM300500 28010KT 6SM -DZ BR BKN008 OVC010=

USA.gov is the U.S. government's official web portal to all federal, state and local government web resources and services.